EST,Max TemperatureF,Mean TemperatureF,Min TemperatureF,Max Dew PointF,MeanDew PointF,Min DewpointF,Max Humidity, Mean Humidity, Min Humidity, Max Sea Level PressureIn, Mean Sea Level PressureIn, Min Sea Level PressureIn, Max VisibilityMiles, Mean VisibilityMiles, Min VisibilityMiles, Max Wind SpeedMPH, Mean Wind SpeedMPH, Max Gust SpeedMPH,PrecipitationIn, CloudCover, Events, WindDirDegrees
2013-2-1,16,11,6,4,0,-3,69,61,53,30.41,30.29,30.06,10,9,5,28,14,36,T,5,Snow,261
2013-2-2,27,21,15,21,16,5,81,70,59,30.27,30.06,29.97,10,4,1,20,9,24,T,8,Snow,244
2013-2-3,24,19,13,16,11,6,77,72,67,30.10,30.01,29.93,10,7,2,18,9,25,T,7,Snow,276
2013-2-4,35,27,19,28,20,11,82,69,56,30.09,29.92,29.79,10,8,2,15,6,77,T,8,Snow,229
2013-2-5,36,29,22,28,22,17,84,73,61,30.02,29.92,29.84,8,4,2,17,7,23,0.00,6,,302
2013-2-6,37,34,30,25,21,18,75,64,52,30.27,30.20,30.05,10,9,6,17,5,23,0.00,4,,205
2013-2-7,53,42,31,40,30,23,75,57,38,30.21,29.99,29.78,10,7,2,16,7,20,0.18,2,Rain,158
2013-2-8,44,36,28,39,27,20,85,74,63,30.36,30.10,29.79,10,8,2,24,14,31,0.08,6,Rain,330
2013-2-9,39,30,21,23,20,17,84,66,48,30.43,30.35,30.21,10,9,4,12,5,15,0.00,0,,136
2013-2-10,52,42,32,46,32,19,77,62,46,30.19,29.92,29.70,10,10,3,26,13,38,0.02,6,Rain,176
2013-2-11,53,43,33,46,30,22,83,69,54,30.03,29.84,29.67,10,10,9,31,18,43,T,6,Snow,253
2013-2-12,44,37,30,28,24,21,85,67,49,30.13,30.04,29.95,10,9,5,17,9,21,0.00,4,,288
2013-2-13,42,35,28,28,24,21,85,70,55,29.93,29.85,29.78,10,8,5,13,6,20,0.00,4,,331
2013-2-14,49,42,35,36,32,28,89,73,56,29.98,29.85,29.77,10,8,4,23,13,31,0.00,6,,241
2013-2-15,37,30,22,28,26,16,85,72,58,30.17,30.07,29.97,10,6,0,21,7,24,T,6,Fog-Snow,303
2013-2-16,25,22,19,18,13,8,84,67,50,30.14,30.10,30.05,10,9,2,21,10,25,T,7,Snow,298
2013-2-17,30,22,13,12,9,7,80,60,39,30.25,30.19,30.11,10,10,10,10,5,14,0.00,1,,260
2013-2-18,57,41,25,41,26,8,82,62,42,30.17,29.89,29.60,10,10,9,31,16,46,0.12,3,Rain,185
2013-2-19,47,34,21,41,19,11,82,72,62,30.12,29.87,29.54,10,5,1,32,22,44,0.12,8,Rain-Snow,270
2013-2-20,23,18,13,14,10,5,73,68,62,30.34,30.25,30.10,10,9,2,20,12,31,T,7,Snow,309
2013-2-21,29,26,22,21,18,15,77,70,63,30.36,30.24,30.03,10,9,4,24,12,30,0.05,8,Rain-Snow,75
2013-2-22,37,32,27,34,29,21,92,84,75,30.06,29.92,29.86,10,5,1,25,11,32,0.06,8,Rain-Snow,190
2013-2-23,35,31,26,28,23,19,82,71,59,30.00,29.96,29.92,10,10,8,16,9,20,0.00,4,,278
2013-2-24,38,32,25,24,21,18,81,68,54,30.16,30.09,29.97,10,10,7,16,6,20,0.00,2,,304
2013-2-25,44,34,23,28,24,20,88,71,53,30.19,30.10,29.94,10,9,6,17,8,21,0.00,0,,97
2013-2-26,43,39,34,40,33,25,92,78,64,29.91,29.53,29.41,10,4,0,26,13,37,0.82,7,Fog-Rain,83
2013-2-27,43,38,32,39,31,28,92,87,82,29.67,29.60,29.45,10,4,1,20,12,25,0.06,8,Rain-Snow,244
2013-2-28,39,36,32,32,30,28,89,82,75,29.96,29.79,29.64,10,7,2,18,11,26,0.01,8,Snow,299